map of SAV home
SAV - Airport
Location
City:  Savannah, Georgia, United States
Name:Savannah/Hilton Head International Airport
ICAO:KSAV
IATA:SAV
FAA LID:SAV

Details
Type:Airport (Part 139 Class I)
Use:Public/Civil, International (customs landing rights)
Latitude:3207'39"N (32.127583)
Longitude:8112'08"W (-81.202138)
Datum:WGS 1984
Elevation:50 ft (15 m)
Variation:7.04W (WMM2015v2 magnetic declination)
-0.05 annual change
Runways:2
Longest:9351 × 150 ft (2850 × 45.5 m), paved

Time
Time Zone:UTC-5 (DST-4)
Local Time:

Weather
METAR:KSAV 041353Z 33004KT 10SM FEW250 11/09 A3011 RMK AO2 SLP195 T01060094
TAF:KSAV 041125Z 0412/0512 35003KT 6SM BR SCT002
FM041300 VRB05KT P6SM SCT250

Related Locations
Nearby:
Farthest:MQZ: 11491 mi / 18493 km
Margaret River [Margaret River Airport], WA, AU

Find:

   beyond  
but within

Other Information
Maps:
Delays:
NOTAMs:
Links:
Sources:

  
  • flag of United States
  • flag of Georgia
  

Airport Diagram

Airport diagram for SAV

Airport diagram PDF from FAA

Sectional Chart

Flight Planning
at skyvector.com

Satellite Image

Google Maps Satellite view

 

Copyright © 2004-2019 Karl L. Swartz. All rights reserved.
The Great Circle Mapper name and logo are trademarks of the Great Circle Mapper.
All other trademarks mentioned herein belong to their respective owners.
Please see credits for attibutions and further copyright information.

  Follow gcmap on Facebook Follow gcmap on Twitter GCmap on LinkedIn

hCard Microformat

Geo Microformat